Time;durP1;ratioP1;P1;durP2;ratioP2;P2;SDS_P1;SDS_P2;PMS_P1;PMS_P2;Temp;Humidity;BMP_temperature;BMP_pressure;BME280_temperature;BME280_humidity;BME280_pressure;Samples;Min_cycle;Max_cycle;Signal;HPM_P1;HPM_P2
2021/01/14 00:00:14;;;;;;;69.47;31.17;;;;;;;-0.48;83.18;96825.53;1785828;80;21075;-75
2021/01/14 00:02:43;;;;;;;64.05;33.20;;;;;;;-0.45;83.17;96833.83;1785854;79;20897;-76
2021/01/14 00:05:11;;;;;;;68.42;33.98;;;;;;;-0.51;83.08;96828.15;1785919;80;21420;-76
2021/01/14 00:07:37;;;;;;;73.55;37.95;;;;;;;-0.50;83.07;96826.30;1785666;79;21199;-75
2021/01/14 00:10:05;;;;;;;77.47;37.88;;;;;;;-0.44;83.10;96821.33;1785871;80;21170;-75
2021/01/14 00:12:32;;;;;;;64.75;32.93;;;;;;;-0.40;83.06;96819.82;1755471;79;21182;-75
2021/01/14 00:14:58;;;;;;;78.10;40.38;;;;;;;-0.45;83.09;96815.72;1785822;80;21408;-75
2021/01/14 00:17:25;;;;;;;69.45;37.25;;;;;;;-0.58;83.13;96812.84;1785932;79;21134;-75
2021/01/14 00:19:51;;;;;;;92.12;42.73;;;;;;;-0.57;83.23;96807.80;1785836;80;21197;-75
2021/01/14 00:22:17;;;;;;;76.07;38.13;;;;;;;-0.61;82.93;96802.13;1785869;79;21570;-75
2021/01/14 00:24:43;;;;;;;93.78;41.55;;;;;;;-0.71;82.93;96796.62;1785695;79;21032;-75
2021/01/14 00:27:10;;;;;;;83.12;42.98;;;;;;;-0.71;83.08;96792.63;1785807;79;21122;-75
2021/01/14 00:29:36;;;;;;;80.57;40.73;;;;;;;-0.68;83.10;96789.52;1785814;80;21107;-75
2021/01/14 00:32:03;;;;;;;77.78;39.85;;;;;;;-0.69;83.05;96789.73;1785908;80;22065;-75
2021/01/14 00:34:30;;;;;;;80.07;39.33;;;;;;;-0.73;82.84;96780.62;1785669;79;21145;-75
2021/01/14 00:39:41;;;;;;;68.62;34.63;;;;;;;-0.76;82.95;96780.59;1785312;80;21035;-75
2021/01/14 00:42:07;;;;;;;74.32;35.17;;;;;;;-0.81;82.70;96771.17;1785406;80;21538;-75
2021/01/14 00:44:33;;;;;;;63.60;32.83;;;;;;;-0.90;82.63;96772.59;1785153;79;21193;-75
2021/01/14 00:46:59;;;;;;;58.17;35.75;;;;;;;-0.97;82.74;96771.39;1785209;80;21133;-75
2021/01/14 00:49:26;;;;;;;64.55;33.18;;;;;;;-1.01;82.81;96770.27;1785201;79;21090;-75
2021/01/14 00:51:52;;;;;;;73.28;33.33;;;;;;;-1.04;82.79;96774.70;1785345;80;21135;-75
2021/01/14 00:54:18;;;;;;;52.20;29.60;;;;;;;-1.11;82.75;96774.06;1785295;79;21440;-75
2021/01/14 00:56:45;;;;;;;69.10;33.55;;;;;;;-1.11;82.86;96770.56;1785382;80;21201;-76
2021/01/14 00:59:11;;;;;;;65.42;32.93;;;;;;;-1.09;82.87;96777.80;1785155;79;21448;-75
2021/01/14 01:01:41;;;;;;;71.02;35.43;;;;;;;-1.10;82.86;96765.56;1785272;80;21136;-75
2021/01/14 01:04:08;;;;;;;75.92;37.17;;;;;;;-1.14;82.65;96762.02;1785148;79;21108;-74
2021/01/14 01:06:39;;;;;;;62.08;31.80;;;;;;;-1.25;82.83;96758.08;1785295;80;21502;-74
2021/01/14 01:09:08;;;;;;;66.67;28.70;;;;;;;-1.32;83.03;96751.55;1785303;79;21981;-75
2021/01/14 01:11:35;;;;;;;68.20;32.85;;;;;;;-1.35;83.04;96751.23;1785034;79;21145;-75
2021/01/14 01:14:03;;;;;;;67.65;37.53;;;;;;;-1.46;82.87;96748.86;1785184;79;21043;-75
2021/01/14 01:16:29;;;;;;;69.00;34.03;;;;;;;-1.50;83.18;96745.87;1785217;80;21087;-75
2021/01/14 01:18:55;;;;;;;73.33;37.10;;;;;;;-1.52;83.01;96746.64;1785212;79;21027;-75
2021/01/14 01:21:21;;;;;;;89.85;42.20;;;;;;;-1.58;83.12;96737.45;1785228;80;21192;-75
2021/01/14 01:23:47;;;;;;;78.75;40.25;;;;;;;-1.60;83.27;96735.04;1785044;79;21518;-75
2021/01/14 01:26:16;;;;;;;78.15;39.50;;;;;;;-1.58;83.20;96741.44;1785300;79;20999;-75
2021/01/14 01:28:43;;;;;;;76.65;37.08;;;;;;;-1.59;83.17;96735.84;1784628;79;21022;-75
2021/01/14 01:31:10;;;;;;;71.25;37.60;;;;;;;-1.58;83.23;96732.14;1785328;80;21087;-75
2021/01/14 01:33:41;;;;;;;81.35;40.43;;;;;;;-1.57;83.07;96727.11;1785189;79;22008;-75
2021/01/14 01:36:08;;;;;;;74.70;39.75;;;;;;;-1.56;83.17;96727.39;1785209;80;21086;-74
2021/01/14 01:38:35;;;;;;;74.03;39.45;;;;;;;-1.59;83.08;96726.55;1785291;79;21652;-74
2021/01/14 01:41:02;;;;;;;68.62;38.53;;;;;;;-1.55;83.26;96722.36;1730732;80;21071;-75
2021/01/14 01:43:28;;;;;;;57.20;30.77;;;;;;;-1.56;83.13;96717.58;1785272;79;21012;-75
2021/01/14 01:45:54;;;;;;;58.35;28.65;;;;;;;-1.60;83.02;96721.75;1785174;80;21487;-75
2021/01/14 01:48:22;;;;;;;43.48;24.90;;;;;;;-1.62;83.08;96723.01;1785077;79;21011;-75
2021/01/14 01:50:50;;;;;;;32.05;17.35;;;;;;;-1.63;83.39;96724.86;1785286;80;21075;-75
2021/01/14 01:53:16;;;;;;;36.13;17.87;;;;;;;-1.89;84.48;96720.84;1785331;79;21114;-75
2021/01/14 01:55:43;;;;;;;34.08;19.92;;;;;;;-1.91;83.78;96726.92;1785215;80;21066;-75
2021/01/14 01:58:10;;;;;;;29.75;17.48;;;;;;;-1.94;83.54;96725.25;1785264;79;21192;-75
2021/01/14 02:00:36;;;;;;;32.55;17.50;;;;;;;-1.96;83.12;96720.70;1785093;80;21083;-75
2021/01/14 02:03:03;;;;;;;50.65;32.53;;;;;;;-2.04;84.17;96714.70;1785192;79;21424;-75
2021/01/14 02:05:29;;;;;;;50.40;25.80;;;;;;;-2.01;83.54;96720.05;1785245;80;21439;-75
2021/01/14 02:08:07;;;;;;;70.32;37.80;;;;;;;-2.06;83.36;96709.31;1785299;79;21094;-75
2021/01/14 02:10:36;;;;;;;77.15;38.65;;;;;;;-2.14;83.34;96715.77;1785203;79;21247;-75
2021/01/14 02:13:08;;;;;;;86.37;42.20;;;;;;;-2.14;83.40;96712.31;1785148;79;21404;-75
2021/01/14 02:15:34;;;;;;;94.25;51.88;;;;;;;-2.21;83.35;96713.77;1784306;80;21174;-75
2021/01/14 02:18:00;;;;;;;144.75;65.35;;;;;;;-2.27;83.44;96710.70;1785177;79;21028;-75
2021/01/14 02:20:26;;;;;;;131.93;58.38;;;;;;;-2.29;83.76;96707.48;1785166;80;21078;-75
2021/01/14 02:23:04;;;;;;;128.97;58.85;;;;;;;-2.28;83.65;96705.11;1785172;79;21198;-75
2021/01/14 02:25:35;;;;;;;88.78;42.58;;;;;;;-2.33;83.69;96707.11;1784783;80;21059;-74
2021/01/14 02:28:01;;;;;;;92.92;46.20;;;;;;;-2.31;83.85;96713.52;1784690;79;21046;-75
2021/01/14 02:30:27;;;;;;;87.25;42.65;;;;;;;-2.32;83.81;96707.39;1785216;79;21487;-75
2021/01/14 02:32:54;;;;;;;91.53;43.50;;;;;;;-2.28;83.86;96704.59;1785276;79;21118;-75
2021/01/14 02:35:20;;;;;;;89.95;44.95;;;;;;;-2.26;83.84;96699.05;1785170;80;21191;-75
2021/01/14 02:37:46;;;;;;;107.63;49.88;;;;;;;-2.27;83.74;96692.13;1785198;79;20960;-75
2021/01/14 02:40:12;;;;;;;92.30;45.40;;;;;;;-2.21;84.11;96697.05;1785158;80;21380;-75
2021/01/14 02:42:39;;;;;;;85.75;42.75;;;;;;;-2.14;84.19;96697.71;1785225;79;21028;-75
2021/01/14 02:45:07;;;;;;;70.42;36.58;;;;;;;-2.12;84.30;96695.66;1785144;80;21087;-75
2021/01/14 02:47:33;;;;;;;60.20;31.30;;;;;;;-2.10;83.93;96693.05;1785273;79;21246;-75
2021/01/14 02:50:03;;;;;;;50.95;28.15;;;;;;;-2.14;84.29;96693.20;1785123;80;21439;-75
2021/01/14 02:52:29;;;;;;;44.93;25.40;;;;;;;-2.15;84.80;96696.91;1785118;79;21266;-75
2021/01/14 02:54:56;;;;;;;46.70;25.57;;;;;;;-2.15;84.54;96697.42;1785246;80;21491;-75
2021/01/14 02:57:25;;;;;;;54.00;27.05;;;;;;;-2.12;84.11;96694.33;1785231;79;21074;-75
2021/01/14 02:59:54;;;;;;;40.12;21.75;;;;;;;-2.09;83.91;96699.97;1755485;80;21183;-75
2021/01/14 03:02:20;;;;;;;36.58;20.43;;;;;;;-2.05;84.21;96695.83;1785289;79;21091;-75
2021/01/14 03:04:46;;;;;;;52.15;26.77;;;;;;;-2.00;84.21;96705.22;1785123;80;21459;-75
2021/01/14 03:07:13;;;;;;;45.63;23.52;;;;;;;-1.89;84.07;96698.80;1785129;79;21039;-75
2021/01/14 03:09:39;;;;;;;47.93;24.67;;;;;;;-1.95;83.87;96697.90;1785226;80;21020;-75
2021/01/14 03:12:05;;;;;;;43.13;25.02;;;;;;;-1.96;83.72;96694.16;1785184;80;21187;-75
2021/01/14 03:14:31;;;;;;;44.85;23.35;;;;;;;-1.95;83.99;96689.94;1785109;79;21158;-75
2021/01/14 03:16:57;;;;;;;30.52;16.62;;;;;;;-1.92;84.60;96690.78;1785308;80;21519;-75
2021/01/14 03:19:24;;;;;;;29.98;16.45;;;;;;;-1.96;84.61;96694.16;1785189;79;21133;-75
2021/01/14 03:21:50;;;;;;;33.40;17.20;;;;;;;-1.93;84.19;96689.70;1785182;80;21546;-75
2021/01/14 03:24:16;;;;;;;32.93;19.23;;;;;;;-1.92;84.11;96685.48;1785184;79;21190;-74
2021/01/14 03:26:42;;;;;;;32.67;17.87;;;;;;;-1.85;84.07;96689.34;1799709;79;21506;-75
2021/01/14 03:29:08;;;;;;;34.10;18.27;;;;;;;-1.80;84.05;96692.09;1799660;78;21035;-75
2021/01/14 03:31:34;;;;;;;53.85;27.67;;;;;;;-1.78;83.78;96686.05;1799648;79;21153;-75
2021/01/14 03:34:00;;;;;;;59.53;32.28;;;;;;;-1.87;83.69;96687.45;1799673;78;21030;-75
2021/01/14 03:36:32;;;;;;;69.47;35.20;;;;;;;-1.93;83.81;96679.88;1799734;79;21254;-75
2021/01/14 03:38:55;;;;;;;50.15;28.38;;;;;;;-1.96;83.96;96682.20;1799874;78;21089;-74
2021/01/14 03:41:21;;;;;;;79.40;43.98;;;;;;;-2.03;83.96;96680.47;1799626;79;21498;-74
2021/01/14 03:43:47;;;;;;;66.22;36.98;;;;;;;-1.97;84.28;96686.68;1799594;78;21102;-74
2021/01/14 03:46:15;;;;;;;48.73;27.75;;;;;;;-2.02;84.17;96680.75;1799650;79;21319;-74
2021/01/14 03:48:44;;;;;;;51.33;25.65;;;;;;;-2.03;84.90;96683.13;1799777;78;21089;-74
2021/01/14 03:51:21;;;;;;;38.42;21.93;;;;;;;-1.95;85.34;96679.84;1773020;79;21050;-74
2021/01/14 03:53:49;;;;;;;33.95;22.00;;;;;;;-1.92;85.14;96677.51;1799651;78;21093;-75
2021/01/14 03:56:16;;;;;;;36.50;17.77;;;;;;;-1.88;84.87;96673.86;1799595;79;21101;-74
2021/01/14 03:58:42;;;;;;;34.67;18.80;;;;;;;-1.86;84.73;96675.78;1799634;78;21015;-74
2021/01/14 04:01:08;;;;;;;34.88;18.48;;;;;;;-1.88;84.57;96676.02;1799646;79;21239;-74
2021/01/14 04:03:43;;;;;;;32.70;19.23;;;;;;;-1.89;84.70;96669.06;1799561;78;21137;-74
2021/01/14 04:06:10;;;;;;;33.80;19.17;;;;;;;-1.87;84.63;96677.63;1799261;79;21427;-74
2021/01/14 04:08:36;;;;;;;35.30;19.60;;;;;;;-1.87;84.64;96674.98;1799610;78;21111;-74
2021/01/14 04:11:03;;;;;;;35.88;19.98;;;;;;;-1.85;84.37;96679.53;1799736;79;21392;-74
2021/01/14 04:13:30;;;;;;;36.55;19.87;;;;;;;-1.84;84.30;96677.67;1799772;78;21253;-75
2021/01/14 04:15:57;;;;;;;34.48;17.32;;;;;;;-1.83;84.10;96677.44;1799723;79;21110;-74
2021/01/14 04:18:23;;;;;;;29.85;18.87;;;;;;;-1.84;84.15;96673.70;1799775;78;21129;-74
2021/01/14 04:20:49;;;;;;;35.58;19.75;;;;;;;-1.86;84.26;96682.42;1799760;79;21113;-74
2021/01/14 04:23:16;;;;;;;30.88;18.32;;;;;;;-1.91;84.80;96682.30;1799801;78;21074;-74
2021/01/14 04:25:43;;;;;;;37.08;20.40;;;;;;;-1.86;84.60;96678.44;1799741;79;21101;-74
2021/01/14 04:28:09;;;;;;;31.62;16.75;;;;;;;-1.79;85.08;96684.44;1799692;78;21152;-74
2021/01/14 04:30:35;;;;;;;30.70;18.00;;;;;;;-1.75;84.48;96681.06;1799772;79;21105;-74
2021/01/14 04:33:12;;;;;;;42.25;21.45;;;;;;;-1.74;84.44;96679.22;1799854;78;21380;-74
2021/01/14 04:35:49;;;;;;;34.90;20.25;;;;;;;-1.71;84.79;96684.88;1799818;79;21054;-75
2021/01/14 04:38:16;;;;;;;38.08;20.92;;;;;;;-1.66;84.78;96688.67;1797599;78;21189;-74
2021/01/14 04:40:44;;;;;;;37.58;22.30;;;;;;;-1.60;84.71;96687.74;1799792;79;21026;-74
2021/01/14 04:43:12;;;;;;;88.72;41.13;;;;;;;-1.50;84.78;96678.64;1799512;78;21089;-75
2021/01/14 04:45:41;;;;;;;70.00;36.08;;;;;;;-1.46;84.24;96682.43;1799693;79;21116;-75
2021/01/14 04:48:10;;;;;;;45.63;27.93;;;;;;;-1.50;84.26;96683.44;1799661;78;21069;-75
2021/01/14 04:50:36;;;;;;;71.87;36.35;;;;;;;-1.43;84.37;96685.44;1799741;79;21183;-75
2021/01/14 04:53:03;;;;;;;79.05;38.83;;;;;;;-1.39;84.25;96684.44;1799781;78;21408;-75
2021/01/14 04:55:29;;;;;;;54.85;29.70;;;;;;;-1.39;83.94;96682.30;1799731;79;21043;-75
2021/01/14 04:57:56;;;;;;;71.77;38.05;;;;;;;-1.47;83.76;96687.46;1799756;78;21109;-75
2021/01/14 05:00:25;;;;;;;78.20;40.03;;;;;;;-1.58;83.96;96684.33;1799830;79;21086;-75
2021/01/14 05:05:34;;;;;;;61.42;35.00;;;;;;;-1.71;84.28;96690.69;1847625;76;22676;-73
2021/01/14 05:08:06;;;;;;;60.10;32.10;;;;;;;-1.80;84.75;96690.23;1806736;78;21011;-74
2021/01/14 05:10:37;;;;;;;56.63;30.05;;;;;;;-1.76;84.62;96687.42;1785950;80;21261;-74
2021/01/14 05:13:03;;;;;;;50.08;27.37;;;;;;;-1.66;84.59;96692.13;1785809;79;21404;-75
2021/01/14 05:15:29;;;;;;;51.58;29.10;;;;;;;-1.65;84.27;96685.77;1785863;80;21129;-75
2021/01/14 05:17:57;;;;;;;48.38;27.10;;;;;;;-1.73;84.20;96687.46;1785907;79;21475;-75
2021/01/14 05:20:24;;;;;;;58.00;32.88;;;;;;;-1.69;84.39;96691.28;1785910;80;20912;-75
2021/01/14 05:22:58;;;;;;;67.70;38.23;;;;;;;-1.69;84.35;96692.61;1785867;79;21176;-75
2021/01/14 05:25:24;;;;;;;71.28;35.80;;;;;;;-1.61;84.45;96687.46;1785207;80;21455;-75
2021/01/14 05:27:50;;;;;;;75.67;40.85;;;;;;;-1.53;84.47;96693.22;1785861;79;21083;-75
2021/01/14 05:30:17;;;;;;;85.10;41.53;;;;;;;-1.49;84.43;96689.03;1785816;80;21106;-75
2021/01/14 05:32:45;;;;;;;71.85;38.48;;;;;;;-1.42;84.25;96693.70;1785946;79;21019;-75
2021/01/14 05:35:13;;;;;;;62.80;32.75;;;;;;;-1.48;83.96;96689.84;1785912;80;21199;-75
2021/01/14 05:37:42;;;;;;;53.05;30.12;;;;;;;-1.50;84.09;96694.59;1785946;79;21440;-75
2021/01/14 05:40:12;;;;;;;64.25;35.98;;;;;;;-1.58;84.20;96695.75;1785969;80;21082;-75
2021/01/14 05:42:39;;;;;;;59.70;35.70;;;;;;;-1.58;84.30;96700.27;1785617;79;21027;-75
2021/01/14 05:45:22;;;;;;;71.70;37.60;;;;;;;-1.56;84.49;96709.61;1785816;80;21113;-75
2021/01/14 05:47:48;;;;;;;63.60;33.95;;;;;;;-1.46;84.50;96708.48;1730339;79;21193;-74
2021/01/14 05:50:14;;;;;;;69.05;39.15;;;;;;;-1.39;84.37;96709.68;1785761;80;21522;-74
2021/01/14 05:52:41;;;;;;;79.72;41.13;;;;;;;-1.37;84.34;96713.42;1730608;80;21054;-74
2021/01/14 05:55:10;;;;;;;74.85;42.25;;;;;;;-1.40;84.44;96720.55;1785924;80;21499;-74
2021/01/14 05:57:39;;;;;;;75.05;40.67;;;;;;;-1.39;84.65;96722.97;1785862;79;21054;-75
2021/01/14 06:00:12;;;;;;;68.72;37.95;;;;;;;-1.37;84.93;96719.55;1785755;80;26289;-75
2021/01/14 06:02:38;;;;;;;60.30;33.53;;;;;;;-1.40;85.04;96734.64;1785769;79;21091;-75
2021/01/14 06:05:28;;;;;;;66.70;35.55;;;;;;;-1.39;84.28;96730.14;1794116;78;21392;-75
2021/01/14 06:07:54;;;;;;;74.72;38.48;;;;;;;-1.43;84.43;96731.95;1776194;78;21427;-75
2021/01/14 06:10:31;;;;;;;79.72;42.43;;;;;;;-1.39;84.48;96729.61;1797804;79;21114;-75
2021/01/14 06:12:58;;;;;;;73.12;40.90;;;;;;;-1.35;84.30;96738.75;1797855;78;21463;-75
2021/01/14 06:15:24;;;;;;;76.12;38.10;;;;;;;-1.33;84.30;96739.31;1797535;79;21141;-75
2021/01/14 06:17:50;;;;;;;67.67;40.35;;;;;;;-1.27;84.39;96743.70;1797243;78;21098;-75
2021/01/14 06:20:17;;;;;;;85.97;43.73;;;;;;;-1.22;84.37;96748.30;1797244;79;21098;-75
2021/01/14 06:22:43;;;;;;;59.27;33.67;;;;;;;-1.19;84.30;96744.66;1797276;78;21015;-75
2021/01/14 06:25:10;;;;;;;66.37;34.30;;;;;;;-1.19;84.02;96749.98;1770693;79;21200;-75
2021/01/14 06:27:37;;;;;;;80.85;41.18;;;;;;;-1.27;84.57;96757.52;1797262;78;20916;-75
2021/01/14 06:30:09;;;;;;;82.78;45.30;;;;;;;-1.28;84.37;96754.54;1797250;79;21018;-75
2021/01/14 06:32:37;;;;;;;82.50;42.38;;;;;;;-1.35;84.55;96760.01;1797331;78;21482;-75
2021/01/14 06:35:06;;;;;;;54.63;31.25;;;;;;;-1.34;84.60;96762.95;1797401;79;22078;-75
2021/01/14 06:37:37;;;;;;;39.67;21.62;;;;;;;-1.31;84.77;96770.97;1797366;78;21985;-75
2021/01/14 06:40:06;;;;;;;41.20;31.57;;;;;;;-1.28;84.90;96771.81;1797163;79;21031;-75
2021/01/14 06:42:36;;;;;;;34.67;21.07;;;;;;;-1.25;85.04;96783.33;1797422;78;21173;-75
2021/01/14 06:45:08;;;;;;;21.48;14.43;;;;;;;-1.17;84.79;96784.30;1797275;79;21411;-75
2021/01/14 06:47:45;;;;;;;14.33;9.63;;;;;;;-1.15;84.73;96788.84;1797361;78;21057;-75
2021/01/14 06:50:22;;;;;;;14.20;8.45;;;;;;;-1.11;85.07;96797.98;1797248;79;21258;-75
2021/01/14 06:53:05;;;;;;;18.98;12.75;;;;;;;-1.07;84.70;96796.98;1797335;78;21153;-75
2021/01/14 06:55:33;;;;;;;23.62;13.03;;;;;;;-1.07;84.63;96800.97;1797203;79;20888;-74
2021/01/14 06:58:10;;;;;;;28.57;17.17;;;;;;;-1.09;85.00;96803.87;1797441;78;21019;-75
2021/01/14 07:00:42;;;;;;;30.23;18.50;;;;;;;-1.12;85.37;96811.48;1797272;79;21003;-75
2021/01/14 07:03:23;;;;;;;18.27;12.68;;;;;;;-1.07;84.97;96813.74;1797360;78;21455;-75
2021/01/14 07:06:00;;;;;;;19.00;9.60;;;;;;;-1.00;85.53;96811.77;1797098;79;21086;-74
2021/01/14 07:08:35;;;;;;;14.98;8.95;;;;;;;-0.99;86.33;96825.34;1797255;78;21117;-75
2021/01/14 07:11:18;;;;;;;14.00;7.47;;;;;;;-0.92;85.26;96822.03;1797208;79;21094;-75
2021/01/14 07:13:50;;;;;;;19.60;10.98;;;;;;;-0.85;85.09;96829.89;1797228;78;21510;-74
2021/01/14 07:16:18;;;;;;;18.73;10.55;;;;;;;-0.80;84.63;96836.63;1797323;79;21130;-75
2021/01/14 07:18:45;;;;;;;22.87;12.10;;;;;;;-0.78;84.54;96831.86;1797177;78;21035;-75
2021/01/14 07:21:34;;;;;;;19.40;10.55;;;;;;;-0.78;84.57;96841.17;1797208;79;21496;-75
2021/01/14 07:24:20;;;;;;;21.15;9.90;;;;;;;-0.80;84.42;96843.80;1797138;78;21264;-75
2021/01/14 07:26:59;;;;;;;18.20;11.68;;;;;;;-0.83;84.46;96849.07;1797217;79;21114;-75
2021/01/14 07:29:25;;;;;;;14.13;8.40;;;;;;;-0.84;84.33;96847.45;1796693;78;22107;-74
2021/01/14 07:31:54;;;;;;;19.55;10.95;;;;;;;-0.93;84.96;96855.00;1770753;79;21145;-74
2021/01/14 07:34:44;;;;;;;16.32;10.75;;;;;;;-0.90;84.64;96863.02;1797153;78;21045;-75
2021/01/14 07:37:13;;;;;;;19.42;13.58;;;;;;;-0.88;84.79;96865.72;1797188;78;21054;-74
2021/01/14 07:39:50;;;;;;;16.05;11.38;;;;;;;-0.88;85.00;96867.05;1797187;79;21026;-74
2021/01/14 07:42:33;;;;;;;15.80;10.30;;;;;;;-0.90;85.37;96869.67;1797165;78;21186;-75
2021/01/14 07:45:04;;;;;;;17.48;9.23;;;;;;;-0.90;85.49;96877.13;1797196;79;21105;-75
2021/01/14 07:47:37;;;;;;;14.83;10.70;;;;;;;-0.90;85.51;96877.13;1797179;78;21174;-75
2021/01/14 07:50:27;;;;;;;24.52;14.33;;;;;;;-0.92;85.71;96879.22;1797205;79;21031;-74
2021/01/14 07:52:56;;;;;;;13.93;8.93;;;;;;;-0.89;85.69;96884.58;1797225;78;21472;-74
2021/01/14 07:55:24;;;;;;;;;;;;;;;-0.89;85.68;96885.39;1799386;79;21187;-75
2021/01/14 07:58:20;;;;;;;16.73;10.88;;;;;;;-0.84;85.40;96883.37;1797105;78;20238;-75
2021/01/14 08:00:59;;;;;;;14.35;9.03;;;;;;;-0.79;85.53;96887.45;1797168;79;21102;-75
2021/01/14 08:03:33;;;;;;;12.70;8.98;;;;;;;-0.83;85.61;96895.62;1797294;78;21534;-75
2021/01/14 08:06:00;;;;;;;33.83;16.02;;;;;;;-0.86;85.47;96908.84;1786803;79;21381;-75
2021/01/14 08:08:37;;;;;;;43.10;20.77;;;;;;;-0.87;85.27;96906.42;1785165;79;21115;-75
2021/01/14 08:11:20;;;;;;;19.50;10.93;;;;;;;-0.78;85.15;96911.67;1780367;80;21035;-75
2021/01/14 08:14:16;;;;;;;14.75;8.55;;;;;;;-0.70;84.92;96918.48;1785167;79;21495;-74
2021/01/14 08:16:50;;;;;;;15.03;9.18;;;;;;;-0.77;84.80;96923.95;1785226;79;21082;-74
2021/01/14 08:19:32;;;;;;;14.45;8.10;;;;;;;-0.72;84.66;96929.89;1785147;79;21339;-75
2021/01/14 08:22:06;;;;;;;11.10;7.62;;;;;;;-0.66;84.46;96928.96;1785228;80;21188;-74
2021/01/14 08:24:59;;;;;;;16.57;9.83;;;;;;;-0.73;84.31;96926.94;1785020;79;21428;-75
2021/01/14 08:27:37;;;;;;;44.10;18.52;;;;;;;-0.63;84.15;96938.60;1785165;79;21790;-74
2021/01/14 08:30:16;;;;;;;17.92;10.28;;;;;;;-0.53;84.08;96932.67;1754713;80;21484;-75
2021/01/14 08:33:04;;;;;;;17.75;10.48;;;;;;;-0.49;83.78;96935.69;1785242;79;21409;-74
2021/01/14 08:35:34;;;;;;;18.92;10.03;;;;;;;-0.46;83.58;96945.33;1784940;80;21260;-74
2021/01/14 08:38:03;;;;;;;22.07;13.75;;;;;;;-0.42;83.05;96951.81;1785073;79;21063;-75
2021/01/14 08:40:32;;;;;;;35.38;22.93;;;;;;;-0.32;83.35;96952.02;1754673;80;21039;-75
2021/01/14 08:43:05;;;;;;;25.82;13.68;;;;;;;-0.20;83.54;96968.47;1785375;79;21459;-75
2021/01/14 08:45:34;;;;;;;13.72;9.40;;;;;;;-0.19;82.71;96957.58;1784377;80;21027;-75
2021/01/14 08:48:05;;;;;;;13.75;7.00;;;;;;;-0.17;82.36;96961.33;1785228;79;21198;-75
2021/01/14 08:50:40;;;;;;;16.93;7.90;;;;;;;-0.33;81.45;96979.69;1785065;79;21055;-75
2021/01/14 08:53:09;;;;;;;15.03;8.43;;;;;;;-0.36;81.56;96977.48;1785162;79;21095;-75
2021/01/14 08:55:36;;;;;;;16.17;8.03;;;;;;;-0.34;81.78;96982.06;1785201;80;21094;-75
2021/01/14 08:58:06;;;;;;;15.53;7.83;;;;;;;-0.26;81.64;96992.03;1785169;79;21039;-75
2021/01/14 09:00:31;;;;;;;16.30;8.33;;;;;;;-0.25;81.96;96999.81;1785165;79;21197;-75
2021/01/14 09:02:57;;;;;;;14.28;6.92;;;;;;;-0.16;82.08;96997.06;1785182;79;21071;-75
2021/01/14 09:05:23;;;;;;;13.28;8.25;;;;;;;-0.31;81.96;97000.22;1791895;79;21074;-75
2021/01/14 09:08:04;;;;;;;21.40;14.25;;;;;;;-0.20;81.88;97001.75;1799733;78;21498;-75
2021/01/14 09:10:22;;;;;;;17.55;8.38;;;;;;;-0.11;82.06;97001.67;1799715;79;21030;-75
2021/01/14 09:12:48;;;;;;;14.00;8.20;;;;;;;-0.06;81.50;97003.92;1799684;78;21509;-75
2021/01/14 09:15:25;;;;;;;15.48;8.33;;;;;;;-0.17;81.43;97015.42;1799705;79;21173;-75
2021/01/14 09:17:56;;;;;;;10.25;6.25;;;;;;;-0.15;81.63;97019.98;1799757;78;21089;-74
2021/01/14 09:20:24;;;;;;;13.83;7.62;;;;;;;-0.46;81.93;97030.50;1799681;79;21018;-74
2021/01/14 09:22:50;;;;;;;16.73;10.48;;;;;;;-0.48;82.60;97030.46;1799745;78;21110;-74
2021/01/14 09:25:33;;;;;;;12.90;6.78;;;;;;;-0.38;82.27;97030.15;1799619;79;21244;-74
2021/01/14 09:28:02;;;;;;;21.07;12.85;;;;;;;-0.52;82.74;97033.28;1776907;79;21038;-75
2021/01/14 09:30:28;;;;;;;23.23;15.27;;;;;;;-0.41;82.23;97038.61;1772943;79;21086;-75
2021/01/14 09:32:58;;;;;;;19.50;10.90;;;;;;;-0.51;82.20;97045.55;1799720;78;21019;-75
2021/01/14 09:35:26;;;;;;;15.40;8.55;;;;;;;-0.39;82.10;97047.69;1799702;79;21098;-74
2021/01/14 09:37:53;;;;;;;16.45;9.15;;;;;;;-0.27;81.93;97047.66;1799609;78;21192;-74
2021/01/14 09:40:21;;;;;;;22.70;16.40;;;;;;;-0.27;81.56;97049.80;1799570;79;21031;-74
2021/01/14 09:42:50;;;;;;;27.93;18.90;;;;;;;-0.17;81.51;97051.37;1799645;78;21522;-74
2021/01/14 09:45:21;;;;;;;24.50;14.80;;;;;;;-0.09;81.62;97051.50;1799800;79;21518;-75
2021/01/14 09:47:50;;;;;;;14.95;8.75;;;;;;;-0.04;81.54;97054.28;1799760;78;21458;-76
2021/01/14 09:50:17;;;;;;;13.20;6.67;;;;;;;0.05;81.44;97058.20;1799605;79;21187;-76
2021/01/14 09:52:44;;;;;;;12.65;6.67;;;;;;;0.12;81.08;97057.55;1799806;78;21051;-76
2021/01/14 09:55:13;;;;;;;13.15;8.13;;;;;;;0.04;79.97;97063.24;1799833;79;21070;-76
2021/01/14 09:57:42;;;;;;;;;;;;;;;-0.16;80.07;97066.83;1802456;78;21406;-76
2021/01/14 10:00:10;;;;;;;12.00;5.92;;;;;;;-0.08;81.01;97067.27;1780891;80;20266;-76
2021/01/14 10:02:36;;;;;;;11.12;6.37;;;;;;;-0.12;80.26;97070.10;1731975;81;21409;-76
2021/01/14 10:05:09;;;;;;;18.05;7.55;;;;;;;-0.13;80.79;97064.49;1781601;78;21455;-76
2021/01/14 10:07:35;;;;;;;24.55;12.73;;;;;;;-0.04;80.84;97071.59;1785162;79;21467;-76
2021/01/14 10:10:02;;;;;;;17.40;9.15;;;;;;;0.01;80.87;97084.23;1785210;80;21399;-74
2021/01/14 10:12:32;;;;;;;18.12;9.53;;;;;;;0.01;80.87;97084.23;1785337;79;21134;-74
2021/01/14 10:15:14;;;;;;;12.95;8.60;;;;;;;0.10;80.90;97088.95;1784650;80;21201;-75
2021/01/14 10:17:41;;;;;;;28.70;15.85;;;;;;;0.15;80.38;97083.70;1785156;79;21432;-74
2021/01/14 10:20:09;;;;;;;23.32;14.78;;;;;;;0.13;80.56;97083.66;1785313;80;21042;-74
2021/01/14 10:22:52;;;;;;;21.93;13.03;;;;;;;0.17;80.29;97084.30;1785293;79;21059;-74
2021/01/14 10:25:20;;;;;;;21.75;11.90;;;;;;;0.23;80.44;97084.67;1785198;80;21114;-74
2021/01/14 10:28:00;;;;;;;20.02;9.93;;;;;;;0.27;80.54;97093.83;1785334;79;21194;-74
2021/01/14 10:30:27;;;;;;;18.92;10.32;;;;;;;0.35;80.41;97090.51;1781336;80;21117;-74
2021/01/14 10:33:01;;;;;;;30.80;14.10;;;;;;;0.39;79.73;97089.78;1785298;79;21098;-75
2021/01/14 10:35:29;;;;;;;14.95;8.90;;;;;;;0.41;79.14;97090.88;1785207;80;21499;-75
2021/01/14 10:38:15;;;;;;;17.40;10.57;;;;;;;0.36;79.23;97099.59;1785499;79;21095;-75
2021/01/14 10:40:45;;;;;;;26.52;13.85;;;;;;;0.50;79.63;97100.11;1785262;80;22079;-74
2021/01/14 10:43:14;;;;;;;53.45;27.45;;;;;;;0.61;79.75;97099.27;1785173;79;21079;-75
2021/01/14 10:45:41;;;;;;;15.72;9.03;;;;;;;0.73;79.74;97098.69;1785391;80;21039;-75
2021/01/14 10:48:14;;;;;;;17.37;9.95;;;;;;;0.74;79.55;97102.16;1785227;79;21060;-75
2021/01/14 10:50:43;;;;;;;19.62;10.48;;;;;;;0.78;79.40;97104.13;1785017;80;21012;-74
2021/01/14 10:53:09;;;;;;;21.77;12.10;;;;;;;0.76;79.14;97104.86;1785459;79;21076;-75
2021/01/14 10:55:35;;;;;;;24.67;13.43;;;;;;;0.85;79.20;97107.95;1756567;80;21150;-75
2021/01/14 10:58:05;;;;;;;25.70;14.43;;;;;;;0.76;79.01;97113.39;1785200;79;21055;-75
2021/01/14 11:00:39;;;;;;;20.02;11.55;;;;;;;0.79;79.20;97112.41;1784534;80;21527;-75
2021/01/14 11:03:10;;;;;;;21.68;10.85;;;;;;;0.80;78.65;97120.69;1785215;79;21125;-74
2021/01/14 11:05:45;;;;;;;15.60;9.73;;;;;;;0.70;78.40;97119.17;1784570;80;21192;-75
2021/01/14 11:08:23;;;;;;;17.48;9.88;;;;;;;0.76;79.01;97118.20;1785250;79;21111;-75
2021/01/14 11:11:09;;;;;;;19.07;9.58;;;;;;;0.86;78.81;97120.80;1785245;80;21107;-75
2021/01/14 11:13:47;;;;;;;16.42;10.65;;;;;;;0.76;78.65;97122.20;1785273;79;21095;-75
2021/01/14 11:16:16;;;;;;;14.98;8.35;;;;;;;0.52;77.23;97124.70;1785488;80;21118;-74
2021/01/14 11:18:44;;;;;;;16.95;9.03;;;;;;;0.28;78.45;97130.08;1785275;79;21259;-74
2021/01/14 11:21:12;;;;;;;16.65;9.28;;;;;;;0.29;78.65;97134.89;1785118;80;21408;-74
2021/01/14 11:23:38;;;;;;;17.55;8.13;;;;;;;0.17;78.45;97136.26;1785179;79;21090;-74
2021/01/14 11:26:05;;;;;;;12.80;7.53;;;;;;;0.10;78.81;97134.23;1756800;80;21047;-75
2021/01/14 11:28:41;;;;;;;15.75;8.50;;;;;;;0.08;79.11;97138.16;1785176;79;21480;-75
2021/01/14 11:31:14;;;;;;;13.43;8.35;;;;;;;0.17;79.45;97144.25;1785240;80;21193;-74
2021/01/14 11:33:40;;;;;;;13.85;7.12;;;;;;;0.19;79.78;97148.81;1737902;80;21042;-74
2021/01/14 11:36:11;;;;;;;16.65;8.58;;;;;;;0.12;80.16;97154.79;1782134;80;21141;-74